KAL1213 RKPK-RKPC
Flight info
| Callsign | KAL1213 |
|---|---|
| Flight time | 0h 51m |
| Altitude | 14000 |
| Route | SOORO2 ENGOT Y572 UPGOS UPGOS2M |
| Aircraft | YS11/M-SDFHY/C |
Departure
| Time | 2026-05-06 18:50 |
|---|---|
| Airport | Gimhae International Airport (RKPK) |
Arrival
| Time | 2026-05-06 19:41 |
|---|---|
| Airport | Jeju International Airport (RKPC) |
| Time | Latitude | Longitude | Altitude | Speed | Heading |
|---|---|---|---|---|---|
| 2026-05-06 18:39 | 35.17973 | 128.93336 | 24 ft | 3 kts | 263° |
| 2026-05-06 18:43 | 35.17974 | 128.93349 | 24 ft | 4 kts | 262° |
| 2026-05-06 18:44 | 35.17979 | 128.93381 | 24 ft | 4 kts | 253° |
| 2026-05-06 18:44 | 35.17989 | 128.93411 | 24 ft | 4 kts | 236° |
| 2026-05-06 18:44 | 35.17997 | 128.93424 | 24 ft | 1 kts | 231° |
| 2026-05-06 18:44 | 35.17998 | 128.93425 | 24 ft | 0 kts | 231° |
| 2026-05-06 18:47 | 35.17985 | 128.93420 | 24 ft | 6 kts | 179° |
| 2026-05-06 18:47 | 35.17945 | 128.93426 | 26 ft | 5 kts | 171° |
| 2026-05-06 18:48 | 35.17865 | 128.93436 | 26 ft | 16 kts | 173° |
| 2026-05-06 18:48 | 35.17792 | 128.93489 | 26 ft | 10 kts | 125° |
| 2026-05-06 18:48 | 35.17754 | 128.93560 | 27 ft | 18 kts | 123° |
| 2026-05-06 18:48 | 35.17750 | 128.93694 | 28 ft | 11 kts | 55° |
| 2026-05-06 18:49 | 35.17793 | 128.93717 | 25 ft | 0 kts | 350° |
| 2026-05-06 18:49 | 35.18030 | 128.93684 | 24 ft | 82 kts | 354° |
| 2026-05-06 18:49 | 35.18769 | 128.93596 | 61 ft | 123 kts | 354° |
| 2026-05-06 18:49 | 35.19623 | 128.93497 | 426 ft | 121 kts | 355° |
| 2026-05-06 18:50 | 35.20426 | 128.93305 | 933 ft | 118 kts | 340° |
| 2026-05-06 18:50 | 35.21058 | 128.92706 | 1436 ft | 112 kts | 298° |
| 2026-05-06 18:50 | 35.21280 | 128.91818 | 1948 ft | 108 kts | 285° |
| 2026-05-06 18:50 | 35.21471 | 128.90947 | 2437 ft | 104 kts | 286° |
| 2026-05-06 18:51 | 35.21698 | 128.90141 | 2859 ft | 100 kts | 291° |
| 2026-05-06 18:51 | 35.21937 | 128.89365 | 3277 ft | 97 kts | 289° |
| 2026-05-06 18:51 | 35.21700 | 128.88601 | 3652 ft | 109 kts | 217° |
| 2026-05-06 18:51 | 35.21013 | 128.88238 | 4189 ft | 106 kts | 206° |
| 2026-05-06 18:52 | 35.20361 | 128.87849 | 4695 ft | 104 kts | 210° |
| 2026-05-06 18:52 | 35.19748 | 128.87401 | 5194 ft | 102 kts | 214° |
| 2026-05-06 18:52 | 35.19157 | 128.86914 | 5684 ft | 102 kts | 216° |
| 2026-05-06 18:52 | 35.18576 | 128.86416 | 6175 ft | 102 kts | 217° |
| 2026-05-06 18:53 | 35.18006 | 128.85913 | 6656 ft | 103 kts | 218° |
| 2026-05-06 18:53 | 35.17441 | 128.85371 | 7130 ft | 104 kts | 220° |
| 2026-05-06 18:53 | 35.16881 | 128.84808 | 7637 ft | 105 kts | 221° |
| 2026-05-06 18:53 | 35.16310 | 128.84238 | 8153 ft | 107 kts | 221° |
| 2026-05-06 18:54 | 35.15727 | 128.83670 | 8675 ft | 109 kts | 220° |
| 2026-05-06 18:54 | 35.15099 | 128.83060 | 9092 ft | 125 kts | 220° |
| 2026-05-06 18:54 | 35.14420 | 128.82402 | 9773 ft | 121 kts | 220° |
| 2026-05-06 18:54 | 35.13729 | 128.81728 | 10293 ft | 136 kts | 221° |
| 2026-05-06 18:55 | 35.12949 | 128.80952 | 10773 ft | 153 kts | 221° |
| 2026-05-06 18:55 | 35.12083 | 128.80094 | 11241 ft | 171 kts | 221° |
| 2026-05-06 18:55 | 35.11090 | 128.79127 | 11706 ft | 189 kts | 220° |
| 2026-05-06 18:55 | 35.10039 | 128.78108 | 12169 ft | 201 kts | 220° |
| 2026-05-06 18:56 | 35.08927 | 128.77021 | 12611 ft | 209 kts | 221° |
| 2026-05-06 18:56 | 35.07781 | 128.75891 | 13051 ft | 214 kts | 221° |
| 2026-05-06 18:56 | 35.06610 | 128.74743 | 13485 ft | 218 kts | 221° |
| 2026-05-06 18:56 | 35.05411 | 128.73578 | 13917 ft | 222 kts | 221° |
| 2026-05-06 18:57 | 35.04194 | 128.72391 | 14341 ft | 226 kts | 221° |
| 2026-05-06 18:57 | 35.02928 | 128.71147 | 14341 ft | 247 kts | 221° |
| 2026-05-06 18:57 | 35.01551 | 128.69799 | 14234 ft | 259 kts | 221° |
| 2026-05-06 18:57 | 35.00123 | 128.68415 | 14072 ft | 264 kts | 220° |
| 2026-05-06 18:58 | 34.98685 | 128.67015 | 14029 ft | 263 kts | 221° |
| 2026-05-06 18:58 | 34.97268 | 128.65627 | 14077 ft | 261 kts | 221° |
| 2026-05-06 18:58 | 34.95853 | 128.64245 | 14097 ft | 261 kts | 221° |
| 2026-05-06 18:58 | 34.94435 | 128.62867 | 14105 ft | 261 kts | 221° |
| 2026-05-06 18:59 | 34.93013 | 128.61486 | 14083 ft | 261 kts | 221° |
| 2026-05-06 18:59 | 34.91588 | 128.60094 | 13958 ft | 265 kts | 221° |
| 2026-05-06 18:59 | 34.90181 | 128.58723 | 14027 ft | 261 kts | 221° |
| 2026-05-06 18:59 | 34.88766 | 128.57351 | 14067 ft | 260 kts | 220° |
| 2026-05-06 19:00 | 34.87350 | 128.55975 | 14085 ft | 260 kts | 221° |
| 2026-05-06 19:00 | 34.85934 | 128.54598 | 14098 ft | 261 kts | 221° |
| 2026-05-06 19:00 | 34.84515 | 128.53219 | 14103 ft | 261 kts | 220° |
| 2026-05-06 19:00 | 34.83573 | 128.52306 | 14103 ft | 262 kts | 220° |
| 2026-05-06 19:01 | 34.81722 | 128.50389 | 14088 ft | 261 kts | 224° |
| 2026-05-06 19:01 | 34.80391 | 128.48890 | 14092 ft | 261 kts | 225° |
| 2026-05-06 19:01 | 34.79118 | 128.47320 | 14093 ft | 260 kts | 230° |
| 2026-05-06 19:01 | 34.77996 | 128.45630 | 14098 ft | 260 kts | 233° |
| 2026-05-06 19:02 | 34.76814 | 128.43926 | 14094 ft | 261 kts | 229° |
| 2026-05-06 19:02 | 34.75595 | 128.42335 | 14093 ft | 261 kts | 229° |
| 2026-05-06 19:02 | 34.74406 | 128.40674 | 14093 ft | 260 kts | 231° |
| 2026-05-06 19:02 | 34.73245 | 128.38989 | 14096 ft | 260 kts | 231° |
| 2026-05-06 19:03 | 34.72039 | 128.37341 | 14090 ft | 261 kts | 229° |
| 2026-05-06 19:03 | 34.70828 | 128.35701 | 14083 ft | 261 kts | 230° |
| 2026-05-06 19:03 | 34.69650 | 128.34033 | 14078 ft | 260 kts | 231° |
| 2026-05-06 19:03 | 34.68484 | 128.32390 | 14083 ft | 260 kts | 230° |
| 2026-05-06 19:04 | 34.67261 | 128.30722 | 14086 ft | 261 kts | 230° |
| 2026-05-06 19:04 | 34.66079 | 128.29095 | 14076 ft | 261 kts | 230° |
| 2026-05-06 19:04 | 34.64896 | 128.27429 | 14081 ft | 260 kts | 231° |
| 2026-05-06 19:04 | 34.63704 | 128.25772 | 14093 ft | 261 kts | 230° |
| 2026-05-06 19:05 | 34.62499 | 128.24125 | 14080 ft | 261 kts | 230° |
| 2026-05-06 19:05 | 34.61301 | 128.22470 | 14087 ft | 261 kts | 230° |
| 2026-05-06 19:05 | 34.60116 | 128.20810 | 14087 ft | 261 kts | 231° |
| 2026-05-06 19:05 | 34.58919 | 128.19155 | 14093 ft | 260 kts | 230° |
| 2026-05-06 19:06 | 34.57718 | 128.17512 | 14080 ft | 261 kts | 230° |
| 2026-05-06 19:06 | 34.56538 | 128.15878 | 14083 ft | 261 kts | 230° |
| 2026-05-06 19:06 | 34.55344 | 128.14216 | 14081 ft | 261 kts | 230° |
| 2026-05-06 19:06 | 34.54142 | 128.12562 | 14094 ft | 261 kts | 230° |
| 2026-05-06 19:07 | 34.52939 | 128.10912 | 14083 ft | 261 kts | 230° |
| 2026-05-06 19:07 | 34.52144 | 128.09813 | 14094 ft | 261 kts | 230° |
| 2026-05-06 19:07 | 34.50541 | 128.07593 | 14094 ft | 262 kts | 230° |
| 2026-05-06 19:07 | 34.49336 | 128.05940 | 14089 ft | 261 kts | 230° |
| 2026-05-06 19:08 | 34.48134 | 128.04289 | 14095 ft | 261 kts | 230° |
| 2026-05-06 19:08 | 34.46951 | 128.02653 | 14095 ft | 261 kts | 230° |
| 2026-05-06 19:08 | 34.45749 | 128.00997 | 14087 ft | 262 kts | 230° |
| 2026-05-06 19:08 | 34.44543 | 127.99345 | 14078 ft | 262 kts | 230° |
| 2026-05-06 19:09 | 34.43339 | 127.97691 | 14077 ft | 262 kts | 230° |
| 2026-05-06 19:09 | 34.42138 | 127.96037 | 14068 ft | 262 kts | 230° |
| 2026-05-06 19:09 | 34.40934 | 127.94382 | 14075 ft | 262 kts | 230° |
| 2026-05-06 19:09 | 34.39730 | 127.92734 | 14074 ft | 262 kts | 230° |
| 2026-05-06 19:10 | 34.38525 | 127.91081 | 14067 ft | 262 kts | 230° |
| 2026-05-06 19:10 | 34.37338 | 127.89450 | 14074 ft | 262 kts | 230° |
| 2026-05-06 19:10 | 34.36131 | 127.87798 | 14071 ft | 262 kts | 230° |
| 2026-05-06 19:10 | 34.34926 | 127.86148 | 14074 ft | 262 kts | 230° |
| 2026-05-06 19:11 | 34.33722 | 127.84496 | 14073 ft | 262 kts | 230° |
| 2026-05-06 19:11 | 34.32517 | 127.82845 | 14074 ft | 262 kts | 230° |
| 2026-05-06 19:11 | 34.31309 | 127.81199 | 14070 ft | 262 kts | 230° |
| 2026-05-06 19:11 | 34.30103 | 127.79550 | 14074 ft | 262 kts | 230° |
| 2026-05-06 19:12 | 34.28899 | 127.77898 | 14074 ft | 262 kts | 230° |
| 2026-05-06 19:12 | 34.27709 | 127.76274 | 14074 ft | 262 kts | 230° |
| 2026-05-06 19:12 | 34.26501 | 127.74628 | 14072 ft | 262 kts | 230° |
| 2026-05-06 19:12 | 34.25297 | 127.72982 | 14070 ft | 262 kts | 230° |
| 2026-05-06 19:13 | 34.24089 | 127.71334 | 14076 ft | 262 kts | 230° |
| 2026-05-06 19:13 | 34.22880 | 127.69690 | 14074 ft | 262 kts | 230° |
| 2026-05-06 19:13 | 34.21672 | 127.68045 | 14069 ft | 262 kts | 230° |
| 2026-05-06 19:13 | 34.20466 | 127.66400 | 14073 ft | 262 kts | 230° |
| 2026-05-06 19:14 | 34.19259 | 127.64755 | 14068 ft | 262 kts | 230° |
| 2026-05-06 19:14 | 34.18108 | 127.63057 | 14066 ft | 261 kts | 235° |
| 2026-05-06 19:14 | 34.17116 | 127.61257 | 14074 ft | 261 kts | 238° |
| 2026-05-06 19:14 | 34.16080 | 127.59461 | 14072 ft | 261 kts | 234° |
| 2026-05-06 19:15 | 34.14957 | 127.57737 | 14070 ft | 261 kts | 233° |
| 2026-05-06 19:15 | 34.13889 | 127.55966 | 14070 ft | 261 kts | 236° |
| 2026-05-06 19:15 | 34.12854 | 127.54171 | 14074 ft | 261 kts | 236° |
| 2026-05-06 19:15 | 34.11766 | 127.52418 | 14075 ft | 261 kts | 234° |
| 2026-05-06 19:16 | 34.10673 | 127.50668 | 14075 ft | 261 kts | 235° |
| 2026-05-06 19:16 | 34.09623 | 127.48888 | 14073 ft | 261 kts | 236° |
| 2026-05-06 19:16 | 34.08560 | 127.47115 | 14074 ft | 261 kts | 234° |
| 2026-05-06 19:16 | 34.07487 | 127.45392 | 14075 ft | 260 kts | 234° |
| 2026-05-06 19:17 | 34.06413 | 127.43632 | 14075 ft | 260 kts | 235° |
| 2026-05-06 19:17 | 34.05358 | 127.41864 | 14075 ft | 260 kts | 235° |
| 2026-05-06 19:17 | 34.04288 | 127.40108 | 14070 ft | 260 kts | 234° |
| 2026-05-06 19:17 | 34.03209 | 127.38359 | 14072 ft | 260 kts | 234° |
| 2026-05-06 19:18 | 34.02141 | 127.36599 | 14073 ft | 260 kts | 235° |
| 2026-05-06 19:18 | 34.01082 | 127.34846 | 14075 ft | 260 kts | 235° |
| 2026-05-06 19:18 | 34.00005 | 127.33086 | 14075 ft | 260 kts | 234° |
| 2026-05-06 19:18 | 33.98928 | 127.31332 | 14073 ft | 261 kts | 235° |
| 2026-05-06 19:19 | 33.97868 | 127.29587 | 14078 ft | 262 kts | 235° |
| 2026-05-06 19:19 | 33.96781 | 127.27795 | 13805 ft | 269 kts | 235° |
| 2026-05-06 19:19 | 33.95674 | 127.25970 | 13483 ft | 270 kts | 235° |
| 2026-05-06 19:19 | 33.94568 | 127.24138 | 13160 ft | 270 kts | 235° |
| 2026-05-06 19:20 | 33.93464 | 127.22300 | 12836 ft | 271 kts | 235° |
| 2026-05-06 19:20 | 33.92360 | 127.20456 | 12510 ft | 271 kts | 235° |
| 2026-05-06 19:20 | 33.91259 | 127.18614 | 12183 ft | 271 kts | 235° |
| 2026-05-06 19:20 | 33.90156 | 127.16773 | 11859 ft | 271 kts | 235° |
| 2026-05-06 19:21 | 33.89052 | 127.14932 | 11533 ft | 271 kts | 235° |
| 2026-05-06 19:21 | 33.87967 | 127.13123 | 11211 ft | 270 kts | 234° |
| 2026-05-06 19:21 | 33.86872 | 127.11302 | 10886 ft | 268 kts | 234° |
| 2026-05-06 19:21 | 33.85778 | 127.09485 | 10560 ft | 267 kts | 234° |
| 2026-05-06 19:22 | 33.84689 | 127.07681 | 10234 ft | 266 kts | 234° |
| 2026-05-06 19:22 | 33.83603 | 127.05880 | 9909 ft | 266 kts | 234° |
| 2026-05-06 19:22 | 33.82514 | 127.04082 | 9583 ft | 266 kts | 234° |
| 2026-05-06 19:22 | 33.81424 | 127.02287 | 9257 ft | 265 kts | 234° |
| 2026-05-06 19:23 | 33.80351 | 127.00522 | 8937 ft | 265 kts | 234° |
| 2026-05-06 19:23 | 33.79262 | 126.98734 | 8611 ft | 265 kts | 234° |
| 2026-05-06 19:23 | 33.78176 | 126.96953 | 8285 ft | 264 kts | 233° |
| 2026-05-06 19:23 | 33.77089 | 126.95176 | 7963 ft | 264 kts | 233° |
| 2026-05-06 19:24 | 33.76003 | 126.93403 | 7636 ft | 263 kts | 233° |
| 2026-05-06 19:24 | 33.74918 | 126.91634 | 7309 ft | 263 kts | 233° |
| 2026-05-06 19:24 | 33.73836 | 126.89870 | 6983 ft | 259 kts | 233° |
| 2026-05-06 19:24 | 33.72812 | 126.88203 | 6646 ft | 235 kts | 233° |
| 2026-05-06 19:25 | 33.71894 | 126.86707 | 6305 ft | 217 kts | 233° |
| 2026-05-06 19:25 | 33.71029 | 126.85298 | 5959 ft | 202 kts | 232° |
| 2026-05-06 19:25 | 33.70189 | 126.84007 | 5613 ft | 191 kts | 229° |
| 2026-05-06 19:25 | 33.69329 | 126.82827 | 5277 ft | 185 kts | 226° |
| 2026-05-06 19:26 | 33.68449 | 126.81739 | 4940 ft | 178 kts | 223° |
| 2026-05-06 19:26 | 33.67553 | 126.80743 | 4607 ft | 173 kts | 219° |
| 2026-05-06 19:26 | 33.66714 | 126.79730 | 4252 ft | 170 kts | 229° |
| 2026-05-06 19:26 | 33.66078 | 126.78602 | 3972 ft | 161 kts | 237° |
| 2026-05-06 19:27 | 33.65537 | 126.77456 | 3655 ft | 155 kts | 240° |
| 2026-05-06 19:27 | 33.65033 | 126.76303 | 3167 ft | 160 kts | 242° |
| 2026-05-06 19:27 | 33.64506 | 126.75100 | 2623 ft | 165 kts | 241° |
| 2026-05-06 19:27 | 33.63930 | 126.73889 | 2079 ft | 169 kts | 239° |
| 2026-05-06 19:28 | 33.63349 | 126.72774 | 2091 ft | 149 kts | 238° |
| 2026-05-06 19:28 | 33.62768 | 126.71687 | 2222 ft | 160 kts | 237° |
| 2026-05-06 19:28 | 33.62160 | 126.70546 | 2367 ft | 165 kts | 237° |
| 2026-05-06 19:28 | 33.61544 | 126.69384 | 2492 ft | 170 kts | 237° |
| 2026-05-06 19:29 | 33.60905 | 126.68171 | 2601 ft | 174 kts | 237° |
| 2026-05-06 19:29 | 33.60262 | 126.66928 | 2707 ft | 177 kts | 237° |
| 2026-05-06 19:29 | 33.59618 | 126.65669 | 2771 ft | 177 kts | 237° |
| 2026-05-06 19:29 | 33.58968 | 126.64396 | 2740 ft | 181 kts | 237° |
| 2026-05-06 19:30 | 33.58306 | 126.63099 | 2644 ft | 186 kts | 237° |
| 2026-05-06 19:30 | 33.57633 | 126.61785 | 2377 ft | 181 kts | 236° |
| 2026-05-06 19:30 | 33.56983 | 126.60516 | 2117 ft | 176 kts | 237° |
| 2026-05-06 19:30 | 33.56594 | 126.59738 | 1951 ft | 152 kts | 238° |
| 2026-05-06 19:31 | 33.55993 | 126.58522 | 1574 ft | 105 kts | 237° |
| 2026-05-06 19:31 | 33.55571 | 126.57709 | 1407 ft | 126 kts | 236° |
| 2026-05-06 19:31 | 33.54636 | 126.55958 | 1143 ft | 112 kts | 233° |
| 2026-05-06 19:32 | 33.54332 | 126.55377 | 1079 ft | 135 kts | 238° |
| 2026-05-06 19:32 | 33.53820 | 126.54321 | 946 ft | 154 kts | 240° |
| 2026-05-06 19:32 | 33.53286 | 126.53211 | 769 ft | 149 kts | 240° |
| 2026-05-06 19:32 | 33.52776 | 126.52223 | 509 ft | 128 kts | 240° |
| 2026-05-06 19:33 | 33.52322 | 126.51355 | 361 ft | 124 kts | 236° |
| 2026-05-06 19:33 | 33.51669 | 126.50128 | 203 ft | 139 kts | 237° |
| 2026-05-06 19:33 | 33.51163 | 126.49129 | 100 ft | 135 kts | 237° |
| 2026-05-06 19:33 | 33.50707 | 126.48229 | 527 ft | 116 kts | 239° |
| 2026-05-06 19:34 | 33.50454 | 126.47644 | 777 ft | 129 kts | 244° |
| 2026-05-06 19:34 | 33.50424 | 126.46436 | 1023 ft | 162 kts | 284° |
| 2026-05-06 19:34 | 33.51054 | 126.45272 | 1469 ft | 175 kts | 316° |
| 2026-05-06 19:34 | 33.52001 | 126.44265 | 1677 ft | 187 kts | 318° |
| 2026-05-06 19:35 | 33.53089 | 126.43304 | 1591 ft | 205 kts | 332° |
| 2026-05-06 19:35 | 33.54963 | 126.43099 | 1740 ft | 206 kts | 11° |
| 2026-05-06 19:35 | 33.55880 | 126.43501 | 1679 ft | 214 kts | 27° |
| 2026-05-06 19:35 | 33.57312 | 126.45079 | 1812 ft | 208 kts | 56° |
| 2026-05-06 19:36 | 33.57762 | 126.46066 | 2032 ft | 200 kts | 65° |
| 2026-05-06 19:36 | 33.58373 | 126.47619 | 1846 ft | 210 kts | 67° |
| 2026-05-06 19:36 | 33.58940 | 126.49192 | 1989 ft | 203 kts | 69° |
| 2026-05-06 19:36 | 33.59467 | 126.50763 | 2036 ft | 203 kts | 71° |
| 2026-05-06 19:37 | 33.59780 | 126.52279 | 2314 ft | 165 kts | 85° |
| 2026-05-06 19:37 | 33.59631 | 126.53542 | 2313 ft | 149 kts | 111° |
| 2026-05-06 19:37 | 33.59061 | 126.54600 | 2038 ft | 154 kts | 130° |
| 2026-05-06 19:37 | 33.58270 | 126.55396 | 1797 ft | 145 kts | 152° |
| 2026-05-06 19:38 | 33.57378 | 126.55950 | 1571 ft | 147 kts | 156° |
| 2026-05-06 19:38 | 33.56411 | 126.56217 | 1357 ft | 135 kts | 181° |
| 2026-05-06 19:38 | 33.55702 | 126.55723 | 1242 ft | 112 kts | 218° |
| 2026-05-06 19:38 | 33.55105 | 126.55153 | 1188 ft | 110 kts | 213° |
| 2026-05-06 19:39 | 33.54483 | 126.54622 | 1099 ft | 110 kts | 216° |
| 2026-05-06 19:39 | 33.53929 | 126.54001 | 980 ft | 110 kts | 225° |
| 2026-05-06 19:39 | 33.53407 | 126.53323 | 839 ft | 111 kts | 225° |
| 2026-05-06 19:39 | 33.52952 | 126.52576 | 697 ft | 112 kts | 237° |
| 2026-05-06 19:40 | 33.52542 | 126.51793 | 515 ft | 109 kts | 234° |
| 2026-05-06 19:40 | 33.52146 | 126.51052 | 362 ft | 105 kts | 232° |
| 2026-05-06 19:40 | 33.51759 | 126.50303 | 224 ft | 108 kts | 239° |
| 2026-05-06 19:40 | 33.51367 | 126.49533 | 97 ft | 105 kts | 238° |
| 2026-05-06 19:41 | 33.51053 | 126.48912 | 89 ft | 68 kts | 238° |
| 2026-05-06 19:41 | 33.50844 | 126.48517 | 93 ft | 44 kts | 240° |
| 2026-05-06 19:41 | 33.50739 | 126.48310 | 91 ft | 19 kts | 231° |
| 2026-05-06 19:41 | 33.50660 | 126.48225 | 93 ft | 14 kts | 211° |
| 2026-05-06 19:42 | 33.50595 | 126.48182 | 92 ft | 8 kts | 207° |
| 2026-05-06 19:42 | 33.50553 | 126.48163 | 95 ft | 6 kts | 187° |
| 2026-05-06 19:42 | 33.50511 | 126.48213 | 92 ft | 9 kts | 87° |
| 2026-05-06 19:42 | 33.50530 | 126.48272 | 91 ft | 6 kts | 60° |
| 2026-05-06 19:43 | 33.50531 | 126.48295 | 91 ft | 0 kts | 75° |
| 2026-05-06 19:46 | 33.50534 | 126.48311 | 91 ft | 14 kts | 74° |
| 2026-05-06 19:46 | 33.50582 | 126.48388 | 91 ft | 7 kts | 15° |
| 2026-05-06 19:46 | 33.50616 | 126.48441 | 91 ft | 16 kts | 58° |
| 2026-05-06 19:47 | 33.50673 | 126.48551 | 90 ft | 16 kts | 58° |
| 2026-05-06 19:47 | 33.50724 | 126.48652 | 90 ft | 6 kts | 58° |
| 2026-05-06 19:47 | 33.50714 | 126.48713 | 89 ft | 16 kts | 152° |
| 2026-05-06 19:47 | 33.50641 | 126.48770 | 89 ft | 6 kts | 155° |
| 2026-05-06 19:48 | 33.50602 | 126.48778 | 90 ft | 8 kts | 181° |
| 2026-05-06 19:48 | 33.50570 | 126.48780 | 90 ft | 7 kts | 135° |
| 2026-05-06 19:48 | 33.50541 | 126.48817 | 90 ft | 7 kts | 147° |
| 2026-05-06 19:48 | 33.50522 | 126.48831 | 90 ft | 0 kts | 149° |